Details From LIPY - Falconara
To LDZD - Zadar
Flight Number -
Tags Generated
Created
Modified
Stats Distance 91 nm / 168 km
Max Altitude 0 ft / 0 m
Waypoints 2
Social Downloads 0
Likes 0
Share VATSIM

Download

Looking for another format? Having issues loading an existing format? Contact us
Advertisement - Login to hide

Notes

Generated

Route

LIPY LDZD

ID Type Via Altitude Latitude Longitude Leg Dist Tot Dist Heading (true) Name
O LIPY APT - 0 ft / 0 m 43.60691˚ 13.34935˚ - 0 nm - -
O LDZD APT - 0 ft / 0 m 44.07939˚ 15.34116˚ 90 nm 90 nm 71° / 72° -

Altitude Profile

Advertisement - Login to hide

LIPY

Details ICAO LIPY (AOI)
Name FALCONARA
Region Italy
Timezone Europe/Rome (UTC+2.0)
Stats Elevation 49 ft / 15 m (AMSL)
Location 43.616351° 13.362310°
Runways 1
Magnetic Variation 3.342° E

METAR

LIPY 241150Z 34009KT CAVOK 23/17 Q1016

Decode

TAF

TAF LIPY 241100Z 2412/2512 33010KT 9999 FEW020 BECMG 2416/2419 VRB05KT

Decode

Departure Runways

ID Width Length Bearing (true) Bearing (mag) Surface Threshold Offset Overrun Length
04 148 ft / 45 m 9,711 ft / 2,960 m 44.81° 41.47° Asphalt 641 ft / 195 m 0 ft / 0 m
22 148 ft / 45 m 9,711 ft / 2,960 m 224.83° 221.49° Asphalt 492 ft / 150 m 0 ft / 0 m

LDZD

Details ICAO LDZD (ZAD)
Name ZADAR
Region Croatia
Timezone Europe/Zagreb (UTC+2.0)
Stats Elevation 289 ft / 88 m (AMSL)
Location 44.097225° 15.347978°
Runways 2
Magnetic Variation 3.749° E

METAR

LDZD 241230Z 27010KT 240V350 9999 FEW033 26/18 Q1015 NOSIG

Decode

TAF

TAF LDZD 241125Z 2412/2512 32010KT CAVOK TX27/2412Z TN16/2504Z BECMG 2417/2419 05005KT BECMG 2509/2511 22008KT

Decode

Destination Runways

ID Width Length Bearing (true) Bearing (mag) Surface Threshold Offset Overrun Length
04 147 ft / 45 m 6,519 ft / 1,987 m 41.52° 37.77° Asphalt 0 ft / 0 m 0 ft / 0 m
14 147 ft / 45 m 8,159 ft / 2,487 m 135.79° 132.04° Asphalt 0 ft / 0 m 0 ft / 0 m
22 147 ft / 45 m 6,519 ft / 1,987 m 221.53° 217.78° Asphalt 0 ft / 0 m 0 ft / 0 m
32 147 ft / 45 m 8,159 ft / 2,487 m 315.81° 312.06° Asphalt 0 ft / 0 m 0 ft / 0 m

Approach Navaids

Runway Type Ident Frequency Range Bearing (true) Bearing (mag) Slope Elevation
14 Localiser IZD 110.10 MHz 25 nm / 46 km 135.69° 131.94° - 246 ft / 75 m (AMSL)
14 Glidescope IZD 110.10 MHz 25 nm / 46 km 135.69° 131.94° 3.00° 236 ft / 72 m (AMSL)

Popular Alternatives